Terminal Aerodrome Forecast
Issued by NWS

Home | Current Version | Previous Version | Text Only | Print | Product List | Glossary On
Versions: 1 2 3 4 5 6 7 8 9 10 11 12 13 14
000
FTUS43 KGRR 201148
TAFJXN
TAF
KJXN 201148Z 2012/2112 25009KT P6SM BKN150
     FM201300 26009KT P6SM -RA OVC100
     FM201600 26009KT P6SM VCSH BKN040 BKN120
     FM202000 28009KT P6SM VCSH BKN250
     FM210300 30004KT P6SM BKN250=

USA.gov is the U.S. government's official web portal to all federal, state and local government web resources and services.